createdAt,value
2019-04-14T00:00:36.907Z,68.41
2019-04-14T00:04:40.462Z,68.90
2019-04-14T00:08:43.628Z,69.10
2019-04-14T00:12:46.762Z,69.29
2019-04-14T00:16:49.068Z,68.88
2019-04-14T00:20:51.271Z,69.17
2019-04-14T00:24:53.297Z,69.15
2019-04-14T00:28:57.911Z,68.91
2019-04-14T00:33:04.398Z,68.50
2019-04-14T00:37:14.091Z,68.79
2019-04-14T00:41:18.036Z,68.60
2019-04-14T00:45:34.927Z,68.69
2019-04-14T00:49:25.411Z,68.57
2019-04-14T00:53:27.536Z,69.21
2019-04-14T00:57:29.421Z,69.50
2019-04-14T01:01:31.345Z,69.73
2019-04-14T01:05:34.536Z,69.92
2019-04-14T01:09:37.018Z,70.20
2019-04-14T01:13:39.746Z,70.50
2019-04-14T01:17:41.851Z,71.00
2019-04-14T01:21:43.727Z,70.98
2019-04-14T01:25:45.645Z,71.43
2019-04-14T01:29:47.552Z,71.59
2019-04-14T01:33:49.449Z,71.31
2019-04-14T01:37:51.359Z,70.87
2019-04-14T01:41:54.291Z,70.84
2019-04-14T01:46:05.270Z,71.05
2019-04-14T01:49:59.994Z,71.50
2019-04-14T01:54:15.453Z,71.47
2019-04-14T01:58:19.070Z,71.55
2019-04-14T02:02:22.734Z,71.66
2019-04-14T02:06:24.712Z,72.11
2019-04-14T02:10:27.954Z,72.51
2019-04-14T02:14:30.182Z,72.56
2019-04-14T02:18:34.081Z,72.38
2019-04-14T02:22:36.045Z,72.28
2019-04-14T02:26:39.322Z,72.37
2019-04-14T02:30:53.934Z,72.56
2019-04-14T02:35:16.702Z,72.80
2019-04-14T02:43:25.425Z,72.91
2019-04-14T02:55:34.097Z,73.33
2019-04-14T02:59:39.121Z,73.38
2019-04-14T03:03:41.551Z,73.37
2019-04-14T03:07:48.225Z,73.40
2019-04-14T03:11:45.896Z,73.70
2019-04-14T03:15:57.386Z,73.59
2019-04-14T03:20:07.055Z,73.99
2019-04-14T03:24:07.064Z,74.21
2019-04-14T03:28:38.433Z,74.13
2019-04-14T03:44:42.054Z,74.74
2019-04-14T03:53:09.577Z,74.90
2019-04-14T03:56:53.567Z,74.84
2019-04-14T04:00:55.717Z,74.61
2019-04-14T04:04:57.770Z,74.68
2019-04-14T04:08:59.736Z,75.08
2019-04-14T04:13:12.593Z,75.28
2019-04-14T04:17:23.222Z,75.17
2019-04-14T04:21:24.948Z,75.41
2019-04-14T04:25:37.871Z,75.43
2019-04-14T04:29:41.970Z,75.25
2019-04-14T04:33:45.805Z,74.96
2019-04-14T04:37:52.351Z,74.79
2019-04-14T04:41:54.281Z,75.71
2019-04-14T04:45:56.487Z,75.63
2019-04-14T04:49:58.403Z,76.17
2019-04-14T04:54:01.607Z,75.87
2019-04-14T04:58:03.643Z,75.95
2019-04-14T05:02:05.565Z,75.84
2019-04-14T05:06:48.342Z,76.54
2019-04-14T05:10:52.457Z,76.24
2019-04-14T05:15:00.725Z,75.95
2019-04-14T05:19:14.020Z,76.17
2019-04-14T05:23:06.465Z,75.71
2019-04-14T05:27:08.388Z,75.94
2019-04-14T05:31:10.291Z,76.02
2019-04-14T05:35:12.203Z,76.16
2019-04-14T05:39:14.122Z,75.92
2019-04-14T05:43:28.279Z,75.65
2019-04-14T05:47:19.810Z,75.54
2019-04-14T05:51:23.268Z,75.42
2019-04-14T05:55:26.312Z,74.55
2019-04-14T05:59:28.590Z,74.39
2019-04-14T06:03:32.048Z,74.53
2019-04-14T06:07:35.021Z,74.41
2019-04-14T06:11:37.015Z,73.51
2019-04-14T06:15:38.931Z,72.95
2019-04-14T06:19:42.090Z,72.79
2019-04-14T06:23:44.003Z,72.34
2019-04-14T06:27:45.911Z,72.75
2019-04-14T06:32:04.180Z,72.54
2019-04-14T06:36:11.795Z,72.27
2019-04-14T06:40:13.709Z,72.48
2019-04-14T06:44:15.622Z,71.63
2019-04-14T06:48:17.548Z,71.15
2019-04-14T06:52:19.477Z,70.93
2019-04-14T06:56:21.377Z,70.63
2019-04-14T07:00:23.282Z,69.82
2019-04-14T07:04:25.295Z,69.63
2019-04-14T07:08:29.788Z,69.70
2019-04-14T07:12:30.824Z,69.55
2019-04-14T07:16:35.127Z,69.88
2019-04-14T07:20:38.078Z,69.26
2019-04-14T07:24:40.084Z,69.09
2019-04-14T07:28:42.171Z,68.62
2019-04-14T07:32:49.362Z,68.03
2019-04-14T07:36:58.763Z,68.86
2019-04-14T07:41:08.198Z,67.39
2019-04-14T07:45:14.905Z,66.83
2019-04-14T07:49:34.759Z,64.89
2019-04-14T07:53:38.388Z,65.13
2019-04-14T07:57:44.980Z,64.48
2019-04-14T08:01:57.672Z,62.15
2019-04-14T08:05:59.596Z,61.27
2019-04-14T08:10:01.707Z,61.34
2019-04-14T08:14:05.499Z,59.67
2019-04-14T08:18:07.366Z,58.83
2019-04-14T08:22:09.276Z,59.10
2019-04-14T08:26:11.198Z,59.85
2019-04-14T08:30:13.266Z,59.13
2019-04-14T08:34:15.175Z,59.17
2019-04-14T08:38:17.074Z,59.55
2019-04-14T08:42:20.628Z,58.93
2019-04-14T08:46:31.205Z,58.74
2019-04-14T08:50:40.940Z,57.79
2019-04-14T08:54:44.503Z,56.87
2019-04-14T08:59:06.229Z,57.27
2019-04-14T09:03:11.838Z,56.11
2019-04-14T09:07:18.300Z,54.79
2019-04-14T09:11:30.578Z,55.24
2019-04-14T09:15:32.581Z,54.33
2019-04-14T09:19:34.492Z,53.88
2019-04-14T09:23:36.404Z,53.29
2019-04-14T09:27:56.620Z,52.29
2019-04-14T09:32:00.049Z,51.83
2019-04-14T09:36:02.213Z,51.61
2019-04-14T09:40:04.554Z,51.19
2019-04-14T09:44:06.578Z,52.00
2019-04-14T09:48:08.492Z,50.21
2019-04-14T09:52:10.417Z,48.93
2019-04-14T09:56:12.294Z,49.04
2019-04-14T10:00:15.991Z,49.14
2019-04-14T10:04:17.894Z,49.33
2019-04-14T10:08:19.835Z,47.94
2019-04-14T10:12:21.806Z,46.96
2019-04-14T10:16:23.721Z,45.70
2019-04-14T10:20:25.621Z,46.44
2019-04-14T10:24:27.730Z,45.24
2019-04-14T10:28:29.632Z,45.25
2019-04-14T10:32:31.542Z,42.84
2019-04-14T10:36:33.558Z,42.26
2019-04-14T10:40:35.461Z,44.37
2019-04-14T10:44:37.395Z,43.37
2019-04-14T10:48:58.079Z,40.59
2019-04-14T10:52:59.983Z,39.90
2019-04-14T10:57:02.187Z,39.63
2019-04-14T11:01:05.436Z,40.11
2019-04-14T11:05:08.971Z,41.56
2019-04-14T11:09:16.868Z,43.32
2019-04-14T11:13:18.775Z,43.45
2019-04-14T11:17:21.639Z,44.57
2019-04-14T11:21:23.546Z,44.59
2019-04-14T11:25:25.478Z,44.40
2019-04-14T11:29:27.372Z,44.45
2019-04-14T11:33:33.796Z,43.75
2019-04-14T11:37:53.844Z,43.62
2019-04-14T11:41:55.758Z,41.97
2019-04-14T11:45:57.738Z,41.26
2019-04-14T11:49:59.689Z,41.36
2019-04-14T11:54:02.673Z,42.60
2019-04-14T11:58:04.582Z,43.37
2019-04-14T12:02:20.391Z,44.72
2019-04-14T12:06:33.123Z,44.10
2019-04-14T12:10:36.108Z,44.71
2019-04-14T12:14:38.092Z,45.98
2019-04-14T12:18:52.739Z,45.55
2019-04-14T12:22:54.649Z,45.79
2019-04-14T12:26:56.550Z,45.66
2019-04-14T12:30:59.684Z,46.23
2019-04-14T12:35:01.710Z,46.72
2019-04-14T12:39:07.639Z,47.15
2019-04-14T12:43:11.182Z,47.77
2019-04-14T12:47:29.929Z,47.93
2019-04-14T12:51:42.394Z,48.97
2019-04-14T12:55:44.317Z,50.52
2019-04-14T12:59:46.245Z,51.65
2019-04-14T13:03:48.143Z,53.43
2019-04-14T13:07:50.186Z,53.96
2019-04-14T13:11:52.239Z,54.27
2019-04-14T13:15:54.172Z,55.08
2019-04-14T13:19:56.075Z,54.85
2019-04-14T13:23:57.971Z,55.29
2019-04-14T13:27:59.883Z,56.48
2019-04-14T13:32:02.942Z,56.54
2019-04-14T13:36:05.188Z,57.52
2019-04-14T13:40:07.510Z,57.26
2019-04-14T13:44:09.407Z,58.49
2019-04-14T13:48:11.317Z,59.63
2019-04-14T13:52:13.323Z,60.48
2019-04-14T13:56:15.243Z,60.77
2019-04-14T14:00:18.071Z,61.03
2019-04-14T14:04:19.969Z,60.63
2019-04-14T14:08:21.897Z,61.01
2019-04-14T14:12:41.532Z,61.43
2019-04-14T14:17:00.056Z,61.97
2019-04-14T14:21:06.430Z,61.69
2019-04-14T14:25:11.161Z,61.92
2019-04-14T14:29:13.295Z,62.14
2019-04-14T14:33:15.196Z,62.46
2019-04-14T14:37:17.105Z,62.43
2019-04-14T14:41:19.094Z,62.91
2019-04-14T14:45:26.487Z,63.28
2019-04-14T14:49:31.125Z,63.28
2019-04-14T14:53:33.107Z,63.69
2019-04-14T14:57:35.078Z,63.60
2019-04-14T15:01:36.995Z,63.90
2019-04-14T15:05:38.922Z,63.95
2019-04-14T15:09:40.819Z,64.00
2019-04-14T15:13:42.733Z,63.86
2019-04-14T15:17:44.640Z,64.34
2019-04-14T15:21:46.550Z,63.82
2019-04-14T15:25:48.454Z,63.92
2019-04-14T15:30:10.816Z,64.55
2019-04-14T15:34:31.498Z,65.29
2019-04-14T15:38:48.248Z,65.49
2019-04-14T15:42:50.115Z,65.71
2019-04-14T15:46:52.012Z,65.78
2019-04-14T15:50:53.919Z,65.96
2019-04-14T15:54:55.809Z,66.43
2019-04-14T15:59:02.070Z,66.58
2019-04-14T16:03:20.983Z,66.34
2019-04-14T16:07:24.529Z,66.35
2019-04-14T16:11:46.551Z,66.31
2019-04-14T16:16:07.929Z,65.90
2019-04-14T16:20:14.696Z,66.31
2019-04-14T16:24:16.604Z,66.30
2019-04-14T16:28:20.160Z,66.27
2019-04-14T16:32:38.380Z,66.44
2019-04-14T16:36:41.361Z,67.02
2019-04-14T16:40:43.269Z,66.97
2019-04-14T16:44:45.347Z,67.26
2019-04-14T16:48:47.254Z,67.51
2019-04-14T16:52:50.804Z,67.27
2019-04-14T16:56:54.352Z,67.86
2019-04-14T17:01:17.225Z,68.29
2019-04-14T17:05:19.207Z,68.75
2019-04-14T17:09:21.121Z,69.10
2019-04-14T17:13:24.756Z,69.34
2019-04-14T17:17:44.269Z,69.36
2019-04-14T17:21:50.539Z,69.10
2019-04-14T17:26:12.265Z,69.12
2019-04-14T17:30:16.112Z,69.29
2019-04-14T17:34:25.362Z,69.92
2019-04-14T17:38:40.169Z,70.02
2019-04-14T17:42:52.922Z,70.23
2019-04-14T17:46:57.540Z,70.16
2019-04-14T17:51:03.456Z,70.32
2019-04-14T17:55:16.688Z,70.05
2019-04-14T17:59:26.159Z,70.38
2019-04-14T18:03:32.397Z,70.26
2019-04-14T18:07:35.940Z,70.17
2019-04-14T18:11:41.907Z,70.30
2019-04-14T18:15:51.419Z,70.51
2019-04-14T18:19:54.971Z,70.57
2019-04-14T18:23:56.861Z,70.80
2019-04-14T18:28:09.145Z,71.04
2019-04-14T18:32:12.708Z,70.98
2019-04-14T18:36:34.583Z,71.24
2019-04-14T18:40:39.210Z,71.31
2019-04-14T18:44:43.971Z,71.29
2019-04-14T18:48:50.481Z,71.11
2019-04-14T18:53:10.250Z,71.29
2019-04-14T18:57:13.798Z,71.51
2019-04-14T19:01:17.343Z,71.83
2019-04-14T19:05:19.240Z,71.76
2019-04-14T19:09:21.176Z,71.62
2019-04-14T19:13:30.802Z,71.61
2019-04-14T19:17:38.610Z,71.79
2019-04-14T19:21:40.618Z,71.94
2019-04-14T19:25:42.679Z,72.37
2019-04-14T19:29:44.591Z,72.56
2019-04-14T19:33:49.827Z,72.07
2019-04-14T19:37:51.743Z,72.48
2019-04-14T19:41:53.664Z,72.30
2019-04-14T19:45:56.552Z,72.20
2019-04-14T19:49:58.619Z,71.80
2019-04-14T19:54:00.604Z,72.33
2019-04-14T19:58:02.519Z,72.27
2019-04-14T20:02:04.504Z,72.09
2019-04-14T20:06:06.569Z,72.49
2019-04-14T20:10:10.129Z,72.83
2019-04-14T20:14:12.188Z,72.87
2019-04-14T20:18:24.700Z,72.74
2019-04-14T20:22:28.250Z,73.04
2019-04-14T20:26:31.939Z,72.92
2019-04-14T20:30:41.637Z,72.91
2019-04-14T20:34:43.599Z,72.88
2019-04-14T20:38:45.460Z,73.27
2019-04-14T20:42:48.342Z,73.72
2019-04-14T20:46:50.340Z,74.11
2019-04-14T20:50:52.239Z,73.94
2019-04-14T20:54:54.128Z,74.07
2019-04-14T20:58:56.040Z,74.74
2019-04-14T21:03:14.496Z,75.23
2019-04-14T21:07:53.304Z,76.23
2019-04-14T21:12:13.580Z,76.61
2019-04-14T21:16:32.365Z,76.69
2019-04-14T21:20:44.899Z,76.99
2019-04-14T21:25:04.486Z,77.90
2019-04-14T21:29:10.976Z,78.04
2019-04-14T21:33:17.508Z,78.03
2019-04-14T21:37:21.045Z,77.64
2019-04-14T21:41:24.603Z,78.12
2019-04-14T21:45:26.516Z,78.25
2019-04-14T21:49:28.428Z,78.58
2019-04-14T21:53:30.353Z,78.40
2019-04-14T21:57:39.405Z,78.70
2019-04-14T22:01:59.354Z,79.00
2019-04-14T22:06:12.068Z,79.00
2019-04-14T22:10:16.746Z,78.83
2019-04-14T22:14:18.650Z,78.72
2019-04-14T22:18:20.561Z,78.87
2019-04-14T22:22:22.474Z,78.58
2019-04-14T22:26:26.192Z,78.74
2019-04-14T22:30:28.037Z,79.10
2019-04-14T22:34:29.979Z,79.61
2019-04-14T22:38:31.916Z,79.91
2019-04-14T22:42:33.854Z,80.06
2019-04-14T22:46:35.758Z,80.25
2019-04-14T22:50:37.691Z,80.03
2019-04-14T22:54:39.606Z,79.87
2019-04-14T22:58:42.804Z,80.03
2019-04-14T23:02:46.288Z,79.94
2019-04-14T23:07:05.969Z,79.83
2019-04-14T23:11:09.503Z,80.02
2019-04-14T23:15:31.485Z,80.01
2019-04-14T23:19:58.244Z,79.67
2019-04-14T23:24:16.546Z,79.32
2019-04-14T23:28:18.456Z,79.49
2019-04-14T23:32:20.434Z,79.79
2019-04-14T23:36:22.356Z,79.72
2019-04-14T23:40:24.266Z,79.74
2019-04-14T23:44:26.197Z,79.76
2019-04-14T23:48:28.104Z,79.42
2019-04-14T23:52:30.002Z,79.03
2019-04-14T23:56:31.923Z,79.00
